Метеостанция


АнтоновUKKM 192130Z AUTO 16002MPS 9999 // NCD 20/10 Q1020
БориспольUKBB 192130Z 16002MPS CAVOK 17/10 Q1020 R88/CLRD// NOSIG
Гаврышовка (Винница)UKWW 191700Z 17002MPS CAVOK 26/12 Q1019 R13/0///65 NOSIG
ДнепропетровскUKDD 192130Z 35005MPS CAVOK 17/13 Q1020 R26/090070 NOSIG
ЖуляныUKKK 192130Z 00000MPS CAVOK 16/12 Q1020 R08/CLRD70 NOSIG
Запорожье(Мокрая)UKDE 192100Z 34004MPS CAVOK 19/14 Q1019 R02R/090070 NOSIG
Ивано-ФранковскUKLI 192130Z 00000MPS CAVOK 18/17 Q1019 R28/090070 NOSIG
Кривой РогUKDR 192130Z 00000MPS CAVOK 17/11 Q1020 R36/09//70 NOSIG
ЛьвовUKLL 192130Z 00000MPS CAVOK 18/17 Q1019 R13/CLRD// NOSIG
НиколаевUKON 191400Z 05004MPS 010V090 CAVOK 29/09 Q1018 R04/090068 NOSIG
ОдессаUKOO 192130Z VRB01MPS CAVOK 20/13 Q1019 R34/090060 NOSIG
РовноUKLR 191500Z 22002MPS 190V270 CAVOK 30/15 Q1018 NOSIG
УжгородUKLU 191630Z 00000MPS 9999 NSC 30/13 Q1017 R10/090070 NOSIG
ХарьковUKHH 192130Z 34002MPS CAVOK 18/14 Q1020 R07/0///81 NOSIG
ЧерновцыUKLN 192130Z 00000MPS CAVOK 19/16 Q1020 R15/09//70 NOSIG
Скачать:
Скачать этот файл (Metar_шпаргалка.jpg)Расшифровка METAR[ ]4799 Кб
Вся информация, которая имеется в использовании на сайте и доступная для скачивания, получена исключительно из открытых источников информации сети Интернет, всякое совпадение с данными, имеющими ограничения в доступе, случайное и не является преднамеренным.
^ Наверх